Time;durP1;ratioP1;P1;durP2;ratioP2;P2;SDS_P1;SDS_P2;PMS_P1;PMS_P2;Temp;Humidity;BMP_temperature;BMP_pressure;BME280_temperature;BME280_humidity;BME280_pressure;Samples;Min_cycle;Max_cycle;Signal;HPM_P1;HPM_P2
2023/11/29 07:07:51;;;;;;;24.70;11.73;;;0.40;99.90;;;;;;5085833;28;20315;-50
2023/11/29 07:10:18;;;;;;;24.65;10.93;;;0.30;99.90;;;;;;5074068;28;20685;-46
2023/11/29 07:12:43;;;;;;;32.15;13.60;;;0.30;99.90;;;;;;5047134;28;20029;-46
2023/11/29 07:15:09;;;;;;;21.65;12.23;;;0.30;99.90;;;;;;5047476;28;20390;-46
2023/11/29 07:17:36;;;;;;;20.98;10.23;;;0.30;99.90;;;;;;5046135;28;20028;-50
2023/11/29 07:20:04;;;;;;;18.48;11.13;;;0.40;99.90;;;;;;5044496;28;20067;-47
2023/11/29 07:22:32;;;;;;;24.63;12.60;;;0.40;99.90;;;;;;5046859;28;20071;-47
2023/11/29 07:24:58;;;;;;;27.65;11.32;;;0.40;99.90;;;;;;5047092;28;20029;-49
2023/11/29 07:27:23;;;;;;;20.50;11.32;;;0.50;99.90;;;;;;5056374;28;20079;-50
2023/11/29 07:29:49;;;;;;;22.13;11.82;;;0.50;99.90;;;;;;5065418;28;20036;-46
2023/11/29 07:32:15;;;;;;;18.88;11.07;;;0.50;99.90;;;;;;5065041;28;20033;-46
2023/11/29 07:34:44;;;;;;;17.42;10.57;;;0.50;99.90;;;;;;5064981;28;20035;-47
2023/11/29 07:37:10;;;;;;;24.60;11.13;;;0.60;99.90;;;;;;5065022;28;20027;-49
2023/11/29 07:39:36;;;;;;;18.90;10.30;;;0.70;99.90;;;;;;5065311;28;20216;-48
2023/11/29 07:42:01;;;;;;;18.30;9.73;;;0.70;99.90;;;;;;5052992;28;20409;-47
2023/11/29 07:44:27;;;;;;;19.27;10.05;;;0.80;99.90;;;;;;5047987;28;20397;-47
2023/11/29 07:46:52;;;;;;;16.95;10.20;;;0.90;99.90;;;;;;5046178;28;20102;-46
2023/11/29 07:49:18;;;;;;;18.15;9.10;;;0.90;99.90;;;;;;5044445;28;20351;-48
2023/11/29 07:51:46;;;;;;;18.52;11.50;;;1.00;99.90;;;;;;5044749;28;20573;-48
2023/11/29 07:54:13;;;;;;;18.85;9.93;;;1.10;99.90;;;;;;5043035;28;20021;-47
2023/11/29 07:56:42;;;;;;;18.13;9.43;;;1.10;99.90;;;;;;5044459;28;20029;-51
2023/11/29 07:59:12;;;;;;;16.98;10.32;;;1.20;99.90;;;;;;5044238;28;20096;-50
2023/11/29 08:01:39;;;;;;;17.52;9.15;;;1.30;99.90;;;;;;5043753;28;20029;-51
2023/11/29 08:04:04;;;;;;;15.60;9.10;;;1.30;99.90;;;;;;5044575;28;20114;-47
2023/11/29 08:06:31;;;;;;;18.58;9.82;;;1.40;99.90;;;;;;5044188;28;20473;-47
2023/11/29 08:08:57;;;;;;;17.75;10.40;;;1.40;99.90;;;;;;5044498;28;20021;-48
2023/11/29 08:11:22;;;;;;;19.98;10.15;;;1.40;99.90;;;;;;5047047;28;20021;-51
2023/11/29 08:13:49;;;;;;;17.83;8.85;;;1.50;99.90;;;;;;5056944;28;20141;-50
2023/11/29 08:16:15;;;;;;;14.82;9.30;;;1.50;99.90;;;;;;5061886;28;20029;-50
2023/11/29 08:18:40;;;;;;;17.35;8.80;;;1.50;99.90;;;;;;5054017;28;20027;-49
2023/11/29 08:21:06;;;;;;;16.85;9.65;;;1.50;99.90;;;;;;5051138;28;20082;-51
2023/11/29 08:23:32;;;;;;;15.10;9.35;;;1.50;99.90;;;;;;5051129;28;20453;-48
2023/11/29 08:25:57;;;;;;;14.73;9.13;;;1.50;99.90;;;;;;5051015;28;20059;-47
2023/11/29 08:28:23;;;;;;;14.63;9.77;;;1.50;99.90;;;;;;5051185;28;20120;-47
2023/11/29 08:30:50;;;;;;;15.95;8.60;;;1.60;99.90;;;;;;5050993;28;20044;-48
2023/11/29 08:33:16;;;;;;;18.05;10.15;;;1.60;99.90;;;;;;5049487;28;20551;-47
2023/11/29 08:35:42;;;;;;;15.25;9.32;;;1.60;99.90;;;;;;5051010;28;20025;-47
2023/11/29 08:38:08;;;;;;;15.52;8.95;;;1.70;99.90;;;;;;5049159;28;20275;-47
2023/11/29 08:40:34;;;;;;;17.45;9.10;;;1.70;99.90;;;;;;5051046;28;20201;-47
2023/11/29 08:43:01;;;;;;;12.55;8.32;;;1.80;99.90;;;;;;5050749;28;20028;-49
2023/11/29 08:45:27;;;;;;;13.93;8.90;;;1.70;99.90;;;;;;5050526;28;20030;-47
2023/11/29 08:47:53;;;;;;;17.63;9.85;;;1.60;99.90;;;;;;5049093;28;20487;-50
2023/11/29 08:50:18;;;;;;;16.42;8.73;;;1.70;99.90;;;;;;5050699;28;20016;-46
2023/11/29 08:52:44;;;;;;;18.55;9.00;;;1.80;99.90;;;;;;5051155;28;20013;-48
2023/11/29 08:55:10;;;;;;;18.38;9.50;;;1.80;99.90;;;;;;5051230;28;20017;-48
2023/11/29 08:57:36;;;;;;;18.45;9.63;;;1.80;99.90;;;;;;5049582;28;20040;-51
2023/11/29 09:00:03;;;;;;;18.73;10.45;;;1.80;99.90;;;;;;5050576;28;20564;-51
2023/11/29 09:02:29;;;;;;;16.55;9.63;;;1.80;99.90;;;;;;5050520;28;20031;-48
2023/11/29 09:04:55;;;;;;;16.38;9.38;;;1.80;99.90;;;;;;5050406;28;20107;-47
2023/11/29 09:07:21;;;;;;;14.05;8.93;;;1.90;99.90;;;;;;5050361;28;20029;-50
2023/11/29 09:09:47;;;;;;;13.93;8.40;;;2.00;99.90;;;;;;5050362;28;20394;-49
2023/11/29 09:12:17;;;;;;;15.70;9.60;;;2.00;99.90;;;;;;5050310;28;20493;-49
2023/11/29 09:14:43;;;;;;;14.27;6.87;;;1.90;99.90;;;;;;5050208;28;20094;-50
2023/11/29 09:17:09;;;;;;;12.98;8.40;;;2.00;99.90;;;;;;5050327;28;20028;-47
2023/11/29 09:19:35;;;;;;;15.40;8.93;;;2.10;99.90;;;;;;5049904;28;20478;-51
2023/11/29 09:22:03;;;;;;;15.52;9.13;;;2.10;99.90;;;;;;5050151;28;20040;-51
2023/11/29 09:24:29;;;;;;;17.65;10.10;;;2.10;99.90;;;;;;5050021;28;20413;-50
2023/11/29 09:26:55;;;;;;;14.20;9.18;;;2.10;99.90;;;;;;5049407;28;20033;-48
2023/11/29 09:29:21;;;;;;;18.00;9.00;;;2.00;99.90;;;;;;5048531;28;20020;-50
2023/11/29 09:31:48;;;;;;;14.68;8.73;;;2.00;99.90;;;;;;5049951;28;20538;-48
2023/11/29 09:34:13;;;;;;;16.70;9.52;;;2.00;99.90;;;;;;5049870;28;20017;-47
2023/11/29 09:36:39;;;;;;;11.60;7.63;;;2.10;99.90;;;;;;5049857;28;20063;-49
2023/11/29 09:39:12;;;;;;;12.38;8.23;;;2.20;99.90;;;;;;5049602;28;20064;-48
2023/11/29 09:41:43;;;;;;;12.38;8.35;;;2.20;99.90;;;;;;5049847;28;20036;-47
2023/11/29 09:44:09;;;;;;;15.80;8.50;;;2.30;99.90;;;;;;5049480;28;20078;-49
2023/11/29 09:46:37;;;;;;;12.43;7.82;;;2.40;99.90;;;;;;5050070;28;20037;-50
2023/11/29 09:49:03;;;;;;;15.23;8.90;;;2.60;99.90;;;;;;5042720;28;20061;-51
2023/11/29 09:51:29;;;;;;;12.27;7.82;;;2.60;99.90;;;;;;5032835;28;20028;-48
2023/11/29 09:53:55;;;;;;;12.05;8.13;;;2.70;99.90;;;;;;5031872;28;20029;-49
2023/11/29 09:56:20;;;;;;;18.50;8.07;;;2.70;99.90;;;;;;5032812;28;20115;-48
2023/11/29 09:58:46;;;;;;;13.23;7.60;;;2.80;99.90;;;;;;5045419;28;20092;-49
2023/11/29 10:01:15;;;;;;;14.02;8.65;;;2.70;99.90;;;;;;5049113;28;20037;-49
2023/11/29 10:03:42;;;;;;;13.10;7.80;;;2.80;99.90;;;;;;5035079;28;20032;-48
2023/11/29 10:06:08;;;;;;;12.50;8.30;;;2.70;99.90;;;;;;5042843;28;20029;-48
2023/11/29 10:08:34;;;;;;;12.65;8.55;;;2.70;99.90;;;;;;5035516;28;20439;-50
2023/11/29 10:11:00;;;;;;;15.52;9.05;;;2.60;99.90;;;;;;5033537;28;20017;-49
2023/11/29 10:13:28;;;;;;;16.55;9.15;;;2.50;99.90;;;;;;5035289;28;20374;-50
2023/11/29 10:15:54;;;;;;;15.20;8.93;;;2.40;99.90;;;;;;5028213;28;20034;-47
2023/11/29 10:18:20;;;;;;;14.60;9.38;;;2.40;99.90;;;;;;5049441;28;20517;-50
2023/11/29 10:20:46;;;;;;;11.55;7.28;;;2.40;99.90;;;;;;5034721;28;20040;-47
2023/11/29 10:23:13;;;;;;;14.65;8.23;;;2.30;99.90;;;;;;5033397;28;20465;-47
2023/11/29 10:25:39;;;;;;;15.15;8.98;;;2.40;99.90;;;;;;5032856;28;20454;-49
2023/11/29 10:28:05;;;;;;;15.02;8.82;;;2.30;99.90;;;;;;5028929;28;20048;-48
2023/11/29 10:30:30;;;;;;;17.00;8.35;;;2.10;99.90;;;;;;5042330;28;20067;-47
2023/11/29 10:32:56;;;;;;;14.65;9.00;;;2.10;99.90;;;;;;5029183;28;20017;-48
2023/11/29 10:35:24;;;;;;;12.43;8.07;;;2.10;99.90;;;;;;5030817;28;20486;-47
2023/11/29 10:37:57;;;;;;;13.55;8.23;;;2.10;99.90;;;;;;5040917;28;20114;-46
2023/11/29 10:40:24;;;;;;;15.35;8.40;;;2.00;99.90;;;;;;5030521;28;20024;-46
2023/11/29 10:42:53;;;;;;;14.48;8.77;;;2.10;99.90;;;;;;5042481;28;20032;-47
2023/11/29 10:45:20;;;;;;;12.60;7.70;;;2.10;99.90;;;;;;5048291;28;20025;-48
2023/11/29 10:47:58;;;;;;;12.18;8.25;;;2.10;99.90;;;;;;5035291;28;20029;-47
2023/11/29 10:50:24;;;;;;;12.68;8.65;;;2.20;99.90;;;;;;5048653;28;20021;-49
2023/11/29 10:52:50;;;;;;;13.63;7.85;;;2.20;99.90;;;;;;5048750;28;20013;-51
2023/11/29 10:55:16;;;;;;;16.27;8.98;;;2.30;99.90;;;;;;5047260;28;20440;-48
2023/11/29 10:58:04;;;;;;;11.68;8.68;;;2.30;99.90;;;;;;5047989;28;20025;-48
2023/11/29 11:00:30;;;;;;;17.10;8.30;;;2.30;99.90;;;;;;5048399;28;20029;-48
2023/11/29 11:02:56;;;;;;;16.10;8.43;;;2.20;99.90;;;;;;5048417;28;20463;-48
2023/11/29 11:05:24;;;;;;;12.40;8.75;;;2.20;99.90;;;;;;5047981;28;20036;-49
2023/11/29 11:07:50;;;;;;;13.30;8.90;;;2.20;99.90;;;;;;5048273;28;20025;-51
2023/11/29 11:10:26;;;;;;;15.18;8.48;;;2.10;99.90;;;;;;5048543;28;20047;-48
2023/11/29 11:12:53;;;;;;;13.23;8.85;;;2.10;99.90;;;;;;5048614;28;20442;-49
2023/11/29 11:15:28;;;;;;;13.52;8.85;;;2.10;99.90;;;;;;5048218;28;20100;-50
2023/11/29 11:18:03;;;;;;;14.73;9.15;;;2.00;99.90;;;;;;5047761;28;20025;-51
2023/11/29 11:20:43;;;;;;;14.18;8.88;;;1.90;99.90;;;;;;5048302;28;20032;-50
2023/11/29 11:23:17;;;;;;;16.65;9.60;;;2.00;99.90;;;;;;5048201;28;20104;-51
2023/11/29 11:25:43;;;;;;;15.20;9.15;;;1.90;99.90;;;;;;5048242;28;20021;-51
2023/11/29 11:28:32;;;;;;;14.00;9.25;;;1.90;99.90;;;;;;5047609;28;20028;-50
2023/11/29 11:31:06;;;;;;;13.57;9.77;;;1.90;99.90;;;;;;5032730;28;20617;-49
2023/11/29 11:33:50;;;;;;;13.60;8.85;;;1.90;99.90;;;;;;5033830;28;20025;-50
2023/11/29 11:36:20;;;;;;;17.38;9.88;;;1.90;99.90;;;;;;5041220;28;20340;-51
2023/11/29 11:38:46;;;;;;;17.77;10.18;;;1.90;99.90;;;;;;5033142;28;20439;-48
2023/11/29 11:41:12;;;;;;;16.05;9.82;;;2.00;99.90;;;;;;5032754;28;20063;-48
2023/11/29 11:43:37;;;;;;;15.25;9.77;;;2.00;99.90;;;;;;5033408;28;20040;-48
2023/11/29 11:46:03;;;;;;;14.77;9.73;;;2.10;99.90;;;;;;5032538;28;20021;-51
2023/11/29 11:48:31;;;;;;;14.52;9.88;;;2.10;99.90;;;;;;5036465;28;20021;-50
2023/11/29 11:50:57;;;;;;;18.60;10.07;;;2.20;99.90;;;;;;5047839;28;20025;-48
2023/11/29 11:53:23;;;;;;;17.70;10.30;;;2.20;99.90;;;;;;5035780;28;20383;-48
2023/11/29 11:55:49;;;;;;;15.80;10.07;;;2.10;99.90;;;;;;5037576;28;20047;-50
2023/11/29 11:58:17;;;;;;;21.42;10.65;;;2.20;99.90;;;;;;5035253;28;20052;-50
2023/11/29 12:00:43;;;;;;;18.77;11.00;;;2.10;99.90;;;;;;5035391;28;20084;-48
2023/11/29 12:03:10;;;;;;;18.10;10.70;;;2.20;99.90;;;;;;5034724;28;20045;-48
2023/11/29 12:05:36;;;;;;;17.48;9.93;;;2.20;99.90;;;;;;5033007;28;20028;-49
2023/11/29 12:08:03;;;;;;;18.90;9.80;;;2.20;99.90;;;;;;5032510;28;20025;-47
2023/11/29 12:10:30;;;;;;;16.23;10.52;;;2.20;99.90;;;;;;5045974;28;20108;-52
2023/11/29 12:12:56;;;;;;;17.40;10.63;;;2.10;99.90;;;;;;5066662;28;20017;-49
2023/11/29 12:15:22;;;;;;;16.55;10.13;;;2.20;99.90;;;;;;5049754;28;20052;-49
2023/11/29 12:17:48;;;;;;;19.60;10.00;;;2.20;99.90;;;;;;5044872;28;20057;-48
2023/11/29 12:20:14;;;;;;;14.82;10.02;;;2.30;99.90;;;;;;5033958;28;20109;-52
2023/11/29 12:22:42;;;;;;;16.88;9.98;;;2.20;99.90;;;;;;5034477;28;20025;-52
2023/11/29 12:25:12;;;;;;;16.73;10.35;;;2.20;99.90;;;;;;5047269;28;20508;-51
2023/11/29 12:27:39;;;;;;;16.90;10.77;;;2.30;99.90;;;;;;5051048;28;20037;-53
2023/11/29 12:30:07;;;;;;;17.77;11.63;;;2.20;99.90;;;;;;5050995;28;20512;-49
2023/11/29 12:32:33;;;;;;;18.02;10.88;;;2.30;99.90;;;;;;5050850;28;20033;-51
2023/11/29 12:34:58;;;;;;;21.23;11.48;;;2.20;99.90;;;;;;5043965;28;20386;-49
2023/11/29 12:37:26;;;;;;;16.48;10.48;;;2.30;99.90;;;;;;5033419;28;20224;-51
2023/11/29 12:39:56;;;;;;;17.10;10.30;;;2.30;99.90;;;;;;5050733;28;20044;-50
2023/11/29 12:42:21;;;;;;;17.90;11.45;;;2.30;99.90;;;;;;5049597;28;20029;-50
2023/11/29 12:44:47;;;;;;;14.68;9.48;;;2.30;99.90;;;;;;5035477;28;20029;-50
2023/11/29 12:47:13;;;;;;;17.85;9.48;;;2.30;99.90;;;;;;5036784;28;20099;-49
2023/11/29 12:49:38;;;;;;;17.58;9.65;;;2.30;99.90;;;;;;5035058;28;20025;-51
2023/11/29 12:52:04;;;;;;;15.20;9.70;;;2.30;99.90;;;;;;5040146;28;20467;-52
2023/11/29 12:54:30;;;;;;;17.15;9.82;;;2.20;99.90;;;;;;5038312;28;20025;-51
2023/11/29 12:56:56;;;;;;;16.77;9.55;;;2.20;99.90;;;;;;5038748;28;20018;-49
2023/11/29 12:59:28;;;;;;;13.93;8.98;;;2.20;99.90;;;;;;5056911;28;20071;-53
2023/11/29 13:01:53;;;;;;;15.73;9.93;;;2.20;99.90;;;;;;5030163;28;20490;-48
2023/11/29 13:04:19;;;;;;;18.52;9.95;;;2.20;99.90;;;;;;5031965;28;20044;-52
2023/11/29 13:06:45;;;;;;;15.43;9.13;;;2.20;99.90;;;;;;5035047;28;20529;-49
2023/11/29 13:09:11;;;;;;;17.02;9.77;;;2.10;99.90;;;;;;5050076;28;20090;-51
2023/11/29 13:11:37;;;;;;;16.02;9.57;;;2.10;99.90;;;;;;5050637;28;20096;-51
2023/11/29 13:14:03;;;;;;;17.25;9.88;;;2.20;99.90;;;;;;5050209;28;20545;-51
2023/11/29 13:16:29;;;;;;;17.60;9.52;;;2.10;99.90;;;;;;5050013;28;20035;-51
2023/11/29 13:18:55;;;;;;;16.70;9.15;;;2.00;99.90;;;;;;5048463;28;20025;-52
2023/11/29 13:21:22;;;;;;;15.65;10.02;;;2.00;99.90;;;;;;5050279;28;20036;-52
2023/11/29 13:23:48;;;;;;;15.48;9.10;;;2.00;99.90;;;;;;5034140;28;20029;-52
2023/11/29 13:26:13;;;;;;;12.90;8.70;;;1.90;99.90;;;;;;5035353;28;20103;-52
2023/11/29 13:28:39;;;;;;;15.05;9.18;;;1.90;99.90;;;;;;5043040;28;20112;-52
2023/11/29 13:31:05;;;;;;;17.00;9.90;;;1.90;99.90;;;;;;5043925;28;20044;-51
2023/11/29 13:33:31;;;;;;;16.02;9.45;;;1.90;99.90;;;;;;5035664;28;20032;-49
2023/11/29 13:35:56;;;;;;;14.02;9.23;;;1.90;99.90;;;;;;5049741;28;20504;-52
2023/11/29 13:38:22;;;;;;;17.52;10.32;;;1.90;99.90;;;;;;5039952;28;20029;-48
2023/11/29 13:40:48;;;;;;;17.08;10.50;;;1.90;99.90;;;;;;5032410;28;20033;-49
2023/11/29 13:43:13;;;;;;;15.30;9.85;;;1.90;99.90;;;;;;5031051;28;20052;-52
2023/11/29 13:45:39;;;;;;;18.58;10.10;;;1.80;99.90;;;;;;5036269;28;20061;-50
2023/11/29 13:48:05;;;;;;;17.50;10.88;;;1.80;99.90;;;;;;5042661;28;20032;-51
2023/11/29 13:50:30;;;;;;;14.90;9.75;;;1.80;99.90;;;;;;5049439;28;20361;-52
2023/11/29 13:52:56;;;;;;;17.13;10.90;;;1.80;99.90;;;;;;5043612;28;20029;-49
2023/11/29 13:55:22;;;;;;;18.45;10.88;;;1.80;99.90;;;;;;5048936;28;20029;-48
2023/11/29 13:57:48;;;;;;;17.30;10.98;;;1.80;99.90;;;;;;5043222;28;20059;-51
2023/11/29 14:00:13;;;;;;;19.58;11.05;;;1.80;99.90;;;;;;5048839;28;20029;-52
2023/11/29 14:02:39;;;;;;;16.30;10.27;;;1.80;99.90;;;;;;5044931;28;20377;-51
2023/11/29 14:05:05;;;;;;;15.40;10.25;;;1.70;99.90;;;;;;5048726;28;20104;-52
2023/11/29 14:07:31;;;;;;;21.10;11.80;;;1.70;99.90;;;;;;5042194;28;20401;-52
2023/11/29 14:09:56;;;;;;;18.35;10.95;;;1.70;99.90;;;;;;5048829;28;20032;-53
2023/11/29 14:12:22;;;;;;;15.68;10.20;;;1.70;99.90;;;;;;5049044;28;20051;-49
2023/11/29 14:14:48;;;;;;;17.67;10.48;;;1.70;99.90;;;;;;5049085;28;20025;-50
2023/11/29 14:17:13;;;;;;;16.60;10.40;;;1.70;99.90;;;;;;5046793;28;20084;-52
2023/11/29 14:19:39;;;;;;;17.70;9.95;;;1.70;99.90;;;;;;5048704;28;20037;-51
2023/11/29 14:22:06;;;;;;;15.32;9.32;;;1.70;99.90;;;;;;5049379;28;20036;-49
2023/11/29 14:24:32;;;;;;;12.68;9.20;;;1.70;99.90;;;;;;5047686;28;20033;-50
2023/11/29 14:26:58;;;;;;;13.52;9.25;;;1.70;99.90;;;;;;5048358;28;20065;-49
2023/11/29 14:29:24;;;;;;;17.30;10.02;;;1.70;99.90;;;;;;5041952;28;20094;-49
2023/11/29 14:31:50;;;;;;;15.43;10.00;;;1.60;99.90;;;;;;5034160;28;20029;-49
2023/11/29 14:34:16;;;;;;;14.65;10.07;;;1.60;99.90;;;;;;5048580;28;20025;-49
2023/11/29 14:36:45;;;;;;;16.35;11.02;;;1.60;99.90;;;;;;5048536;28;20087;-49
2023/11/29 14:39:13;;;;;;;16.48;10.13;;;1.60;99.90;;;;;;5048403;28;20021;-49
2023/11/29 14:41:40;;;;;;;17.55;11.40;;;1.50;99.90;;;;;;5049329;28;20037;-48
2023/11/29 14:44:05;;;;;;;19.23;11.35;;;1.60;99.90;;;;;;5047269;28;20033;-48
2023/11/29 14:46:31;;;;;;;18.80;11.80;;;1.60;99.90;;;;;;5048342;28;20098;-50
2023/11/29 14:48:59;;;;;;;17.85;11.05;;;1.50;99.90;;;;;;5047995;28;20107;-50
2023/11/29 14:51:25;;;;;;;23.10;11.95;;;1.50;99.90;;;;;;5047277;28;20096;-48
2023/11/29 14:53:50;;;;;;;15.20;10.50;;;1.50;99.90;;;;;;5046962;28;20025;-47
2023/11/29 14:56:16;;;;;;;16.73;10.80;;;1.50;99.90;;;;;;5048328;28;20116;-50
2023/11/29 14:58:41;;;;;;;20.13;10.68;;;1.40;99.90;;;;;;5046924;28;20021;-50
2023/11/29 15:01:07;;;;;;;19.98;11.20;;;1.40;99.90;;;;;;5039619;28;20035;-49
2023/11/29 15:03:33;;;;;;;16.85;11.30;;;1.40;99.90;;;;;;5048304;28;20430;-48
2023/11/29 15:05:58;;;;;;;18.67;11.38;;;1.40;99.90;;;;;;5048051;28;20041;-49
2023/11/29 15:08:24;;;;;;;19.73;12.10;;;1.40;99.90;;;;;;5048155;28;20044;-50
2023/11/29 15:10:49;;;;;;;19.85;12.70;;;1.30;99.90;;;;;;5046976;28;20021;-49
2023/11/29 15:13:15;;;;;;;23.30;13.60;;;1.30;99.90;;;;;;5047322;28;20021;-49
2023/11/29 15:15:41;;;;;;;18.85;12.32;;;1.30;99.90;;;;;;5048324;28;20033;-48
2023/11/29 15:18:06;;;;;;;23.30;13.20;;;1.30;99.90;;;;;;5047873;28;20018;-50
2023/11/29 15:20:32;;;;;;;24.95;14.00;;;1.30;99.90;;;;;;5040728;28;20107;-48
2023/11/29 15:23:00;;;;;;;27.15;15.05;;;1.30;99.90;;;;;;5032982;28;20462;-51
2023/11/29 15:25:25;;;;;;;25.45;14.13;;;1.20;99.90;;;;;;5034607;28;20100;-51
2023/11/29 15:27:51;;;;;;;25.90;15.45;;;1.20;99.90;;;;;;5042825;28;20196;-49
2023/11/29 15:30:17;;;;;;;27.27;15.30;;;1.10;99.90;;;;;;5052068;28;20021;-50
2023/11/29 15:32:42;;;;;;;23.73;14.85;;;1.10;99.90;;;;;;5052415;28;20028;-52
2023/11/29 15:35:08;;;;;;;24.48;14.88;;;1.10;99.90;;;;;;5052509;28;20025;-51
2023/11/29 15:37:33;;;;;;;24.02;14.15;;;1.10;99.90;;;;;;5051914;28;20036;-48
2023/11/29 15:39:59;;;;;;;22.23;14.73;;;1.10;99.90;;;;;;5051984;28;20068;-49
2023/11/29 15:42:25;;;;;;;24.60;14.82;;;1.10;99.90;;;;;;5051974;28;20044;-47
2023/11/29 15:44:50;;;;;;;25.27;15.88;;;1.00;99.90;;;;;;5051736;28;20025;-47
2023/11/29 15:47:16;;;;;;;24.42;15.90;;;1.10;99.90;;;;;;5045193;28;20021;-47
2023/11/29 15:49:42;;;;;;;22.33;14.18;;;1.00;99.90;;;;;;5046002;28;20029;-49
2023/11/29 15:52:09;;;;;;;23.02;15.25;;;1.00;99.90;;;;;;5035819;28;20014;-48
2023/11/29 15:54:34;;;;;;;23.08;15.55;;;1.00;99.90;;;;;;5045364;28;20017;-48
2023/11/29 15:57:00;;;;;;;27.38;14.07;;;1.00;99.90;;;;;;5050133;28;20075;-48
2023/11/29 15:59:25;;;;;;;23.25;15.23;;;1.00;99.90;;;;;;5051370;28;20030;-48
2023/11/29 16:01:51;;;;;;;22.48;14.55;;;1.00;99.90;;;;;;5051792;28;20040;-51
2023/11/29 16:04:16;;;;;;;24.00;15.05;;;1.00;99.90;;;;;;5041911;28;20490;-51
2023/11/29 16:06:42;;;;;;;25.33;15.48;;;1.00;99.90;;;;;;5033434;28;20132;-52
2023/11/29 16:09:07;;;;;;;26.45;15.52;;;1.00;99.90;;;;;;5033074;28;20017;-51
2023/11/29 16:11:33;;;;;;;21.60;13.98;;;1.00;99.90;;;;;;5034778;28;20020;-51
2023/11/29 16:13:59;;;;;;;21.90;13.82;;;1.10;99.90;;;;;;5031066;28;20113;-51
2023/11/29 16:16:25;;;;;;;21.67;12.98;;;1.00;99.90;;;;;;5034042;28;20494;-51
2023/11/29 16:18:50;;;;;;;18.48;12.50;;;1.00;99.90;;;;;;5038580;28;20030;-51
2023/11/29 16:21:16;;;;;;;20.17;12.98;;;1.10;99.90;;;;;;5031419;28;20033;-49
2023/11/29 16:23:41;;;;;;;21.45;13.93;;;1.10;99.90;;;;;;5030695;28;20076;-48
2023/11/29 16:26:07;;;;;;;20.20;12.23;;;1.10;99.90;;;;;;5033627;28;20056;-49
2023/11/29 16:28:33;;;;;;;16.95;11.32;;;1.10;99.90;;;;;;5031939;28;20044;-51
2023/11/29 16:30:59;;;;;;;16.92;12.13;;;1.10;99.90;;;;;;5039319;28;20473;-48
2023/11/29 16:33:25;;;;;;;19.67;12.18;;;1.10;99.90;;;;;;5038650;28;20026;-49
2023/11/29 16:35:50;;;;;;;20.65;12.13;;;1.10;99.90;;;;;;5045607;28;20108;-52
2023/11/29 16:38:16;;;;;;;18.88;12.23;;;1.00;99.90;;;;;;5031318;28;20105;-49
2023/11/29 16:40:43;;;;;;;18.15;12.15;;;1.00;99.90;;;;;;5030879;28;20030;-48
2023/11/29 16:43:10;;;;;;;21.65;12.65;;;1.00;99.90;;;;;;5046376;28;20490;-49
2023/11/29 16:45:36;;;;;;;17.63;11.80;;;1.10;99.90;;;;;;5041904;28;20040;-51
2023/11/29 16:48:04;;;;;;;19.52;12.48;;;1.10;99.90;;;;;;5040856;28;20033;-49
2023/11/29 16:50:29;;;;;;;17.85;11.30;;;1.10;99.90;;;;;;5032338;28;20100;-49
2023/11/29 16:52:55;;;;;;;18.70;12.25;;;1.00;99.90;;;;;;5029101;28;20072;-49
2023/11/29 16:55:21;;;;;;;15.80;10.07;;;1.00;99.90;;;;;;5028658;28;20513;-50
2023/11/29 16:57:46;;;;;;;15.35;10.32;;;1.00;99.90;;;;;;5030050;28;20029;-47
2023/11/29 17:00:12;;;;;;;16.95;10.35;;;1.00;99.90;;;;;;5028672;28;20022;-47
2023/11/29 17:02:38;;;;;;;16.30;9.90;;;1.00;99.90;;;;;;5029346;28;20040;-47
2023/11/29 17:05:04;;;;;;;15.15;10.07;;;1.00;99.90;;;;;;5030277;28;20021;-49
2023/11/29 17:07:29;;;;;;;17.15;11.00;;;1.10;99.90;;;;;;5029907;28;20025;-47
2023/11/29 17:09:56;;;;;;;14.70;10.15;;;1.00;99.90;;;;;;5030044;28;20044;-50
2023/11/29 17:12:22;;;;;;;13.48;9.43;;;1.00;99.90;;;;;;5030323;28;20021;-47
2023/11/29 17:14:49;;;;;;;14.60;9.18;;;1.00;99.90;;;;;;5030479;28;20022;-47
2023/11/29 17:17:15;;;;;;;14.70;9.32;;;1.00;99.90;;;;;;5030260;28;20525;-47
2023/11/29 17:19:41;;;;;;;13.50;8.95;;;1.00;99.90;;;;;;5029653;28;20036;-48
2023/11/29 17:22:08;;;;;;;14.05;8.98;;;0.90;99.90;;;;;;5030002;28;20500;-48
2023/11/29 17:24:34;;;;;;;13.68;9.40;;;1.00;99.90;;;;;;5029724;28;20026;-51
2023/11/29 17:26:59;;;;;;;15.02;8.45;;;0.90;99.90;;;;;;5030267;28;20076;-52
2023/11/29 17:29:28;;;;;;;11.75;7.30;;;0.90;99.90;;;;;;5029481;28;20021;-53
2023/11/29 17:31:54;;;;;;;15.13;9.23;;;0.90;99.90;;;;;;5029988;28;20282;-50
2023/11/29 17:34:19;;;;;;;12.40;8.18;;;0.80;99.90;;;;;;5029933;28;20120;-52
2023/11/29 17:36:46;;;;;;;9.68;7.43;;;0.80;99.90;;;;;;5031348;28;20034;-50
2023/11/29 17:39:12;;;;;;;10.02;7.00;;;0.70;99.90;;;;;;5044338;28;20448;-48
2023/11/29 17:41:38;;;;;;;9.98;7.70;;;0.70;99.90;;;;;;5029789;28;20035;-53
2023/11/29 17:44:04;;;;;;;11.70;8.38;;;0.80;99.90;;;;;;5029368;28;20136;-52
2023/11/29 17:46:30;;;;;;;13.40;9.25;;;0.70;99.90;;;;;;5031193;28;20065;-49
2023/11/29 17:48:56;;;;;;;12.65;8.40;;;0.70;99.90;;;;;;5029116;28;20053;-50
2023/11/29 17:51:21;;;;;;;11.20;8.40;;;0.70;99.90;;;;;;5027479;28;20370;-48
2023/11/29 17:53:47;;;;;;;14.10;8.57;;;0.70;99.90;;;;;;5028094;28;20025;-49
2023/11/29 17:56:12;;;;;;;13.45;8.40;;;0.70;99.90;;;;;;5047325;28;20036;-49
2023/11/29 17:58:38;;;;;;;13.23;8.45;;;0.70;99.90;;;;;;5029329;28;20037;-49
2023/11/29 18:01:04;;;;;;;14.48;8.98;;;0.70;99.90;;;;;;5028879;28;20033;-48
2023/11/29 18:03:29;;;;;;;12.55;7.90;;;0.60;99.90;;;;;;5029443;28;20100;-50
2023/11/29 18:05:55;;;;;;;14.02;9.65;;;0.60;99.90;;;;;;5028841;28;20040;-51
2023/11/29 18:08:22;;;;;;;14.93;8.13;;;0.60;99.90;;;;;;5028618;28;20029;-48
2023/11/29 18:10:57;;;;;;;14.98;8.98;;;0.50;99.90;;;;;;5028589;28;20091;-51
2023/11/29 18:13:25;;;;;;;14.52;8.85;;;0.50;99.90;;;;;;5026960;28;20021;-52
2023/11/29 18:15:50;;;;;;;14.85;9.88;;;0.40;99.90;;;;;;5029023;28;20401;-48
2023/11/29 18:18:16;;;;;;;13.43;9.57;;;0.40;99.90;;;;;;5028137;28;20017;-48
2023/11/29 18:20:43;;;;;;;15.65;9.10;;;0.40;99.90;;;;;;5028712;28;20537;-49
2023/11/29 18:23:09;;;;;;;16.98;9.13;;;0.30;99.90;;;;;;5028390;28;20096;-49
2023/11/29 18:25:36;;;;;;;18.25;10.43;;;0.30;99.90;;;;;;5028606;28;20021;-48
2023/11/29 18:28:03;;;;;;;15.68;9.52;;;0.30;99.90;;;;;;5027630;28;20398;-49
2023/11/29 18:30:29;;;;;;;14.05;9.43;;;0.20;99.90;;;;;;5028354;28;20045;-48
2023/11/29 18:32:54;;;;;;;16.20;10.48;;;0.20;99.90;;;;;;5026859;28;20028;-47
2023/11/29 18:35:20;;;;;;;16.63;10.50;;;0.20;99.90;;;;;;5028722;28;20026;-51
2023/11/29 18:37:46;;;;;;;19.98;10.18;;;0.20;99.90;;;;;;5025615;28;20025;-47
2023/11/29 18:40:12;;;;;;;17.60;10.40;;;0.20;99.90;;;;;;5025719;28;20025;-50
2023/11/29 18:42:37;;;;;;;18.73;10.48;;;0.20;99.90;;;;;;5028197;28;20118;-51
2023/11/29 18:45:04;;;;;;;15.45;9.82;;;0.10;99.90;;;;;;5025884;28;20036;-50
2023/11/29 18:47:29;;;;;;;17.00;10.05;;;0.10;99.90;;;;;;5026828;28;20026;-54
2023/11/29 18:49:55;;;;;;;17.60;10.70;;;0.00;99.90;;;;;;5027401;28;20489;-52
2023/11/29 18:52:21;;;;;;;20.10;10.70;;;0.10;99.90;;;;;;5028446;28;20045;-49
2023/11/29 18:54:46;;;;;;;16.95;10.32;;;0.00;99.90;;;;;;5029019;28;20021;-48
2023/11/29 18:57:12;;;;;;;17.80;10.02;;;0.00;99.90;;;;;;5028502;28;20018;-49
2023/11/29 18:59:41;;;;;;;18.38;10.90;;;0.00;99.90;;;;;;5028224;28;20069;-49
2023/11/29 19:02:07;;;;;;;19.00;10.40;;;0.00;99.90;;;;;;5028365;28;20112;-52
2023/11/29 19:04:33;;;;;;;18.48;10.35;;;0.00;99.90;;;;;;5028044;28;20049;-50
2023/11/29 19:06:59;;;;;;;25.67;11.80;;;-0.10;99.90;;;;;;5027853;28;20068;-50
2023/11/29 19:09:25;;;;;;;16.98;10.45;;;-0.10;99.90;;;;;;5028370;28;20431;-51
2023/11/29 19:11:50;;;;;;;19.63;11.38;;;-0.10;99.90;;;;;;5027892;28;20100;-51
2023/11/29 19:14:16;;;;;;;21.30;12.07;;;-0.20;99.90;;;;;;5028275;28;20060;-50
2023/11/29 19:16:42;;;;;;;16.92;9.80;;;-0.10;99.90;;;;;;5027373;28;20117;-52
2023/11/29 19:19:08;;;;;;;20.80;10.43;;;-0.20;99.90;;;;;;5029665;28;20104;-50
2023/11/29 19:21:34;;;;;;;20.52;12.15;;;-0.20;99.90;;;;;;5027788;28;20671;-51
2023/11/29 19:24:00;;;;;;;22.88;12.07;;;-0.20;99.90;;;;;;5028267;28;20053;-50
2023/11/29 19:26:29;;;;;;;18.02;10.48;;;-0.20;99.90;;;;;;5027450;28;20060;-49
2023/11/29 19:28:55;;;;;;;21.38;11.30;;;-0.20;99.90;;;;;;5027040;28;20033;-49
2023/11/29 19:31:20;;;;;;;20.92;11.63;;;-0.20;99.90;;;;;;5028041;28;20374;-48
2023/11/29 19:33:48;;;;;;;21.77;11.68;;;-0.20;99.90;;;;;;5026736;28;20030;-48
2023/11/29 19:36:14;;;;;;;23.75;11.63;;;-0.30;99.90;;;;;;5028056;28;20379;-48
2023/11/29 19:38:40;;;;;;;20.70;11.73;;;-0.30;99.90;;;;;;5027664;28;20018;-52
2023/11/29 19:41:07;;;;;;;20.58;10.30;;;-0.30;99.90;;;;;;5026598;28;20064;-48
2023/11/29 19:43:33;;;;;;;16.98;10.57;;;-0.30;99.90;;;;;;5027322;28;20031;-48